Time;durP1;ratioP1;P1;durP2;ratioP2;P2;SDS_P1;SDS_P2;PMS_P1;PMS_P2;Temp;Humidity;BMP_temperature;BMP_pressure;BME280_temperature;BME280_humidity;BME280_pressure;Samples;Min_cycle;Max_cycle;Signal;HPM_P1;HPM_P2
2021/09/26 00:00:29;;;;;;;32.63;16.63;;;;;;;17.68;72.17;101483.19;5008070;28;20473;-52
2021/09/26 00:02:55;;;;;;;36.08;18.48;;;;;;;17.65;72.49;101487.59;4996117;28;20042;-50
2021/09/26 00:05:20;;;;;;;35.00;18.38;;;;;;;17.63;72.51;101487.59;5002858;28;20517;-50
2021/09/26 00:07:46;;;;;;;35.03;18.60;;;;;;;17.64;72.39;101473.53;5006164;28;20076;-48
2021/09/26 00:10:12;;;;;;;33.92;18.25;;;;;;;17.66;72.59;101473.53;5005645;28;20056;-49
2021/09/26 00:12:38;;;;;;;34.13;18.45;;;;;;;17.67;72.73;101475.28;5005113;28;20383;-48
2021/09/26 00:15:07;;;;;;;32.58;18.67;;;;;;;17.64;72.73;101480.56;5000764;28;20045;-48
2021/09/26 00:17:32;;;;;;;34.80;18.88;;;;;;;17.67;72.80;101484.09;4999716;28;20135;-50
2021/09/26 00:19:58;;;;;;;35.38;18.55;;;;;;;17.69;72.89;101484.94;5004715;28;20302;-55
2021/09/26 00:22:24;;;;;;;37.30;19.55;;;;;;;17.73;72.75;101475.25;5007457;28;20510;-52
2021/09/26 00:24:50;;;;;;;34.90;19.55;;;;;;;17.74;72.85;101475.25;4999116;28;20136;-50
2021/09/26 00:27:15;;;;;;;38.50;19.80;;;;;;;17.77;72.64;101488.41;5005001;28;20519;-49
2021/09/26 00:29:40;;;;;;;34.30;18.83;;;;;;;17.80;72.17;101480.50;5008525;28;20046;-49
2021/09/26 00:32:06;;;;;;;35.15;18.88;;;;;;;17.90;72.26;101475.13;5003014;28;20053;-48
2021/09/26 00:34:32;;;;;;;30.40;18.00;;;;;;;17.96;71.47;101475.97;5001929;28;20580;-51
2021/09/26 00:36:57;;;;;;;34.38;17.95;;;;;;;18.05;71.42;101481.16;4999179;28;20156;-53
2021/09/26 00:39:23;;;;;;;32.78;17.92;;;;;;;18.04;71.46;101478.56;5003791;28;20052;-51
2021/09/26 00:41:49;;;;;;;32.10;18.38;;;;;;;18.03;71.38;101475.03;5003387;28;20038;-50
2021/09/26 00:44:15;;;;;;;34.83;17.30;;;;;;;18.06;71.53;101477.63;5006619;28;20045;-53
2021/09/26 00:46:40;;;;;;;31.17;17.83;;;;;;;18.02;71.41;101481.19;5006980;28;20276;-49
2021/09/26 00:49:06;;;;;;;30.38;17.38;;;;;;;18.02;71.70;101475.03;4998723;28;20589;-48
2021/09/26 00:51:31;;;;;;;29.58;16.83;;;;;;;17.99;71.57;101465.38;5003745;28;20433;-50
2021/09/26 00:53:56;;;;;;;30.85;17.63;;;;;;;18.03;71.49;101475.03;5002197;28;20039;-48
2021/09/26 00:56:22;;;;;;;31.23;17.13;;;;;;;18.01;71.50;101481.19;5010693;28;20497;-51
2021/09/26 00:58:49;;;;;;;30.23;17.60;;;;;;;18.03;71.34;101480.31;5001373;28;20037;-52
2021/09/26 01:01:14;;;;;;;29.75;17.42;;;;;;;18.04;71.20;101475.91;5003490;28;20129;-51
2021/09/26 01:03:40;;;;;;;29.42;17.08;;;;;;;18.03;71.53;101482.06;5009206;28;20038;-51
2021/09/26 01:06:24;;;;;;;30.42;17.75;;;;;;;18.05;71.42;101482.94;5003696;28;20171;-47
2021/09/26 01:09:04;;;;;;;31.88;17.13;;;;;;;17.83;71.91;101477.81;5004757;28;20045;-53
2021/09/26 01:11:37;;;;;;;30.60;17.45;;;;;;;17.97;71.50;101476.84;5003148;28;20049;-48
2021/09/26 01:14:36;;;;;;;29.65;16.85;;;;;;;17.89;71.66;101474.25;5008225;28;20057;-50
2021/09/26 01:17:05;;;;;;;28.65;16.67;;;;;;;17.92;71.63;101465.47;4996987;28;20042;-49
2021/09/26 01:19:55;;;;;;;29.90;17.52;;;;;;;17.80;71.74;101455.88;5006870;28;20091;-50
2021/09/26 01:23:00;;;;;;;32.05;16.90;;;;;;;17.83;71.59;101448.78;5002988;28;20099;-54
2021/09/26 01:25:50;;;;;;;28.20;17.02;;;;;;;17.79;71.81;101454.13;5006115;28;20513;-49
2021/09/26 01:28:32;;;;;;;30.45;17.48;;;;;;;17.77;71.89;101443.56;5018480;28;20037;-48
2021/09/26 01:31:17;;;;;;;34.88;17.80;;;;;;;17.58;72.82;101447.16;5011838;28;20065;-49
2021/09/26 01:33:47;;;;;;;32.78;17.58;;;;;;;17.69;71.84;101452.41;5007781;28;20505;-49
2021/09/26 01:36:27;;;;;;;32.35;17.45;;;;;;;17.57;72.47;101448.06;4998249;28;20164;-52
2021/09/26 01:39:05;;;;;;;31.67;17.98;;;;;;;17.57;72.49;101447.19;5001605;28;20507;-48
2021/09/26 01:41:44;;;;;;;30.92;17.63;;;;;;;17.63;72.55;101444.53;5001615;28;20033;-48
2021/09/26 01:44:14;;;;;;;32.47;17.92;;;;;;;17.56;72.77;101435.78;5007499;28;20055;-52
2021/09/26 01:46:43;;;;;;;30.55;18.40;;;;;;;17.54;72.88;101437.53;5003501;28;20146;-48
2021/09/26 01:49:21;;;;;;;34.05;18.25;;;;;;;17.58;72.48;101439.25;4992143;28;20774;-50
2021/09/26 01:51:48;;;;;;;34.38;17.48;;;;;;;17.63;72.62;101439.25;5003918;28;20042;-49
2021/09/26 01:54:16;;;;;;;32.33;18.13;;;;;;;17.57;72.69;101440.16;5007644;28;20737;-48
2021/09/26 01:56:43;;;;;;;28.77;17.50;;;;;;;17.60;72.54;101424.34;4990086;28;20045;-48
2021/09/26 01:59:10;;;;;;;30.90;17.83;;;;;;;17.61;72.50;101433.16;5001060;28;20558;-48
2021/09/26 02:01:35;;;;;;;33.03;17.05;;;;;;;17.62;72.24;101433.16;4998338;28;20037;-48
2021/09/26 02:04:01;;;;;;;29.77;17.67;;;;;;;17.56;72.61;101438.41;5017917;28;20038;-50
2021/09/26 02:06:27;;;;;;;30.00;17.77;;;;;;;17.60;72.43;101434.00;5015980;28;20076;-52
2021/09/26 02:08:53;;;;;;;28.83;16.27;;;;;;;17.59;72.54;101437.50;5001631;28;20124;-52
2021/09/26 02:11:18;;;;;;;31.05;17.65;;;;;;;17.58;72.47;101430.47;5006150;28;20033;-50
2021/09/26 02:13:44;;;;;;;31.73;17.90;;;;;;;17.53;72.69;101434.91;4999109;28;20785;-49
2021/09/26 02:16:11;;;;;;;35.35;17.38;;;;;;;17.53;72.61;101430.50;5010618;28;20042;-49
2021/09/26 02:18:38;;;;;;;33.67;18.48;;;;;;;17.50;73.08;101434.94;5006294;28;20409;-52
2021/09/26 02:21:05;;;;;;;31.92;17.60;;;;;;;17.49;72.84;101431.44;4996720;28;20854;-52
2021/09/26 02:23:31;;;;;;;37.00;19.17;;;;;;;17.50;72.99;101441.09;5003358;28;20045;-51
2021/09/26 02:25:56;;;;;;;33.25;17.45;;;;;;;17.58;72.87;101435.75;5004320;28;20065;-51
2021/09/26 02:28:22;;;;;;;32.45;18.10;;;;;;;17.62;72.62;101448.97;5003636;28;20572;-49
2021/09/26 02:30:48;;;;;;;31.48;17.88;;;;;;;17.61;72.64;101446.31;5002619;28;20498;-49
2021/09/26 02:33:14;;;;;;;30.88;17.85;;;;;;;17.65;72.62;101438.38;5005400;28;20638;-50
2021/09/26 02:35:39;;;;;;;32.97;18.02;;;;;;;17.69;72.40;101440.09;5008461;28;20021;-54
2021/09/26 02:38:05;;;;;;;33.45;18.27;;;;;;;17.69;72.43;101440.09;4998878;28;20049;-55
2021/09/26 02:40:31;;;;;;;31.73;17.67;;;;;;;17.75;72.01;101432.16;5007642;28;20357;-51
2021/09/26 02:42:56;;;;;;;30.42;17.65;;;;;;;17.78;72.08;101436.53;4997696;28;20046;-51
2021/09/26 02:45:34;;;;;;;31.65;17.40;;;;;;;17.83;71.89;101435.59;5006791;28;20049;-49
2021/09/26 02:48:26;;;;;;;30.50;18.58;;;;;;;17.61;72.84;101433.16;5004226;28;20124;-51
2021/09/26 02:50:51;;;;;;;31.77;19.33;;;;;;;17.69;72.66;101428.66;4999722;28;20060;-48
2021/09/26 02:53:18;;;;;;;29.92;17.80;;;;;;;17.82;71.90;101432.97;5005809;28;20037;-49
2021/09/26 02:55:46;;;;;;;33.17;18.88;;;;;;;17.88;71.97;101438.22;5005243;28;20048;-49
2021/09/26 02:58:12;;;;;;;31.38;18.27;;;;;;;17.62;72.71;101430.50;5002447;28;20124;-48
2021/09/26 03:00:41;;;;;;;30.77;18.08;;;;;;;17.71;72.69;101434.81;5005196;28;20044;-50
2021/09/26 03:03:13;;;;;;;30.08;18.25;;;;;;;17.61;72.87;101435.78;4997756;28;20389;-51
2021/09/26 03:05:39;;;;;;;33.40;18.70;;;;;;;17.80;72.14;101429.50;5003945;28;20085;-52
2021/09/26 03:08:05;;;;;;;35.88;19.40;;;;;;;17.85;72.20;101432.97;5003151;28;20470;-52
2021/09/26 03:10:31;;;;;;;33.25;18.33;;;;;;;17.86;72.09;101412.75;5003689;28;20037;-50
2021/09/26 03:12:56;;;;;;;29.13;17.55;;;;;;;17.94;71.50;101417.06;4982126;28;20039;-49
2021/09/26 03:15:22;;;;;;;31.20;18.08;;;;;;;17.91;71.84;101413.56;5004820;28;20079;-48
2021/09/26 03:17:47;;;;;;;34.45;18.75;;;;;;;17.95;71.87;101417.94;5000262;28;20126;-49
2021/09/26 03:20:12;;;;;;;32.75;18.38;;;;;;;17.96;71.68;101420.56;5002529;28;20159;-55
2021/09/26 03:22:38;;;;;;;31.80;18.38;;;;;;;17.92;72.05;101421.50;5000277;28;20110;-49
2021/09/26 03:25:03;;;;;;;28.85;16.90;;;;;;;17.97;71.85;101421.44;4998563;28;20053;-49
2021/09/26 03:27:29;;;;;;;31.70;18.35;;;;;;;17.99;72.02;101412.59;5007601;28;20199;-48
2021/09/26 03:29:54;;;;;;;30.98;18.35;;;;;;;18.02;72.10;101411.72;5006444;28;20177;-50
2021/09/26 03:32:19;;;;;;;30.15;17.88;;;;;;;18.02;71.94;101417.00;5001828;28;20045;-49
2021/09/26 03:34:45;;;;;;;33.40;18.13;;;;;;;18.02;71.82;101415.22;5006677;28;20041;-49
2021/09/26 03:37:10;;;;;;;30.02;18.10;;;;;;;18.03;71.68;101400.28;4997583;28;22214;-51
2021/09/26 03:39:37;;;;;;;29.00;17.55;;;;;;;18.04;71.33;101397.63;5006544;28;20048;-49
2021/09/26 03:42:03;;;;;;;28.77;18.35;;;;;;;18.02;71.38;101395.88;5003745;28;20388;-50
2021/09/26 03:44:28;;;;;;;28.20;17.20;;;;;;;18.08;71.35;101398.47;5003914;28;20409;-52
2021/09/26 03:46:54;;;;;;;29.65;17.63;;;;;;;18.04;71.53;101395.00;4999472;28;20038;-49
2021/09/26 03:49:19;;;;;;;33.00;18.77;;;;;;;18.05;71.39;101387.97;5003637;28;20037;-51
2021/09/26 03:51:48;;;;;;;28.35;17.70;;;;;;;18.03;71.64;101390.59;5003795;28;20076;-51
2021/09/26 03:54:13;;;;;;;33.17;18.80;;;;;;;18.01;71.45;101388.84;5003904;28;20772;-52
2021/09/26 03:56:39;;;;;;;29.55;17.98;;;;;;;17.94;71.63;101392.44;5004078;28;20192;-48
2021/09/26 03:59:04;;;;;;;28.88;18.50;;;;;;;17.91;71.72;101401.25;4996380;28;20455;-49
2021/09/26 04:01:29;;;;;;;30.85;17.80;;;;;;;17.97;71.47;101400.34;5001103;28;20490;-51
2021/09/26 04:03:55;;;;;;;31.73;18.13;;;;;;;17.99;71.63;101394.13;5003348;28;20102;-53
2021/09/26 04:06:20;;;;;;;30.65;18.48;;;;;;;18.00;71.54;101393.25;5003847;28;20041;-50
2021/09/26 04:08:46;;;;;;;30.90;18.35;;;;;;;17.99;71.71;101393.28;5005281;28;20058;-53
2021/09/26 04:11:12;;;;;;;30.80;17.95;;;;;;;18.02;71.55;101393.25;5000710;28;20041;-52
2021/09/26 04:13:37;;;;;;;30.20;18.35;;;;;;;18.01;71.69;101387.09;5008439;28;20045;-48
2021/09/26 04:16:03;;;;;;;27.05;16.85;;;;;;;18.11;71.40;101383.47;5001018;28;20045;-53
2021/09/26 04:18:28;;;;;;;31.33;18.98;;;;;;;17.97;72.16;101387.16;5001280;28;20081;-48
2021/09/26 04:20:54;;;;;;;31.08;18.63;;;;;;;18.01;71.87;101397.66;4993084;28;20045;-50
2021/09/26 04:23:19;;;;;;;30.50;18.45;;;;;;;17.96;72.21;101394.19;5004508;28;20632;-49
2021/09/26 04:25:44;;;;;;;31.00;19.05;;;;;;;17.74;72.84;101403.16;5007449;28;20435;-53
2021/09/26 04:28:10;;;;;;;32.80;19.50;;;;;;;17.97;72.17;101397.69;5001852;28;20106;-48
2021/09/26 04:30:36;;;;;;;30.40;18.95;;;;;;;18.02;72.02;101399.41;5009094;28;20472;-49
2021/09/26 04:33:02;;;;;;;30.73;18.70;;;;;;;18.02;71.88;101393.25;5001801;28;20049;-51
2021/09/26 04:35:28;;;;;;;32.65;18.50;;;;;;;18.04;71.83;101383.56;5010518;28;20651;-49
2021/09/26 04:37:53;;;;;;;30.88;18.27;;;;;;;18.04;71.93;101389.72;5007539;28;20908;-49
2021/09/26 04:40:19;;;;;;;28.40;18.52;;;;;;;18.05;71.81;101388.81;5004297;28;20042;-53
2021/09/26 04:42:45;;;;;;;31.80;18.75;;;;;;;18.04;72.02;101394.13;5008487;28;20049;-52
2021/09/26 04:45:11;;;;;;;34.38;18.38;;;;;;;18.07;72.13;101404.63;5001132;28;20583;-50
2021/09/26 04:47:37;;;;;;;33.53;18.40;;;;;;;18.07;72.30;101407.28;5009208;28;20049;-51
2021/09/26 04:50:05;;;;;;;33.33;17.88;;;;;;;18.12;72.03;101397.53;5008638;28;20041;-49
2021/09/26 04:52:30;;;;;;;30.77;18.50;;;;;;;18.16;72.26;101401.94;5007744;28;20049;-51
2021/09/26 04:54:56;;;;;;;31.73;19.35;;;;;;;18.17;72.32;101398.41;5004627;28;20098;-47
2021/09/26 04:57:21;;;;;;;33.53;19.77;;;;;;;18.17;72.17;101387.84;5010511;28;20168;-50
2021/09/26 04:59:46;;;;;;;32.35;19.67;;;;;;;18.17;72.17;101394.00;5006217;28;20080;-48
2021/09/26 05:02:12;;;;;;;32.38;19.77;;;;;;;18.17;72.16;101380.81;5011658;28;20168;-49
2021/09/26 05:04:37;;;;;;;30.60;19.30;;;;;;;18.16;72.41;101380.81;5011378;28;20053;-52
2021/09/26 05:07:03;;;;;;;34.45;19.95;;;;;;;18.18;72.59;101385.16;5002540;28;20382;-50
2021/09/26 05:09:28;;;;;;;35.22;20.13;;;;;;;18.23;72.10;101401.00;5005577;28;20484;-50
2021/09/26 05:11:54;;;;;;;33.35;19.25;;;;;;;18.20;72.47;101395.72;5008078;28;20041;-48
2021/09/26 05:14:20;;;;;;;30.90;18.95;;;;;;;18.23;72.06;101388.66;5004115;28;20485;-49
2021/09/26 05:16:46;;;;;;;29.33;18.48;;;;;;;18.30;72.02;101386.81;5006735;28;20037;-53
2021/09/26 05:19:11;;;;;;;31.23;18.75;;;;;;;18.30;71.98;101386.81;5005787;28;23877;-48
2021/09/26 05:21:37;;;;;;;32.85;19.98;;;;;;;18.32;72.35;101381.53;5008461;28;20037;-49
2021/09/26 05:24:04;;;;;;;34.08;21.00;;;;;;;18.24;72.94;101386.88;5007599;28;20568;-49
2021/09/26 05:26:29;;;;;;;35.15;20.33;;;;;;;18.24;73.35;101381.59;5006291;28;20045;-50
2021/09/26 05:28:54;;;;;;;31.88;20.25;;;;;;;18.29;73.09;101386.84;5010831;28;20474;-51
2021/09/26 05:31:20;;;;;;;35.75;21.00;;;;;;;18.27;73.24;101392.13;5007786;28;20547;-51
2021/09/26 05:33:45;;;;;;;35.78;20.35;;;;;;;18.16;73.42;101389.63;5009402;28;20459;-50
2021/09/26 05:36:10;;;;;;;34.58;20.73;;;;;;;17.96;74.20;101388.91;5009163;28;20041;-54
2021/09/26 05:38:36;;;;;;;36.30;20.75;;;;;;;18.18;73.44;101387.81;5002578;28;20524;-49
2021/09/26 05:41:01;;;;;;;35.03;21.60;;;;;;;18.15;73.97;101394.91;5003068;28;20509;-51
2021/09/26 05:43:26;;;;;;;37.15;21.67;;;;;;;18.13;73.94;101396.66;5006704;28;20053;-53
2021/09/26 05:45:52;;;;;;;37.15;22.20;;;;;;;18.25;73.47;101396.53;5008013;28;20769;-50
2021/09/26 05:48:17;;;;;;;36.97;21.60;;;;;;;18.30;73.29;101392.09;5005501;28;20042;-51
2021/09/26 05:50:43;;;;;;;36.05;21.40;;;;;;;18.31;73.24;101403.53;5004720;28;20061;-54
2021/09/26 05:53:08;;;;;;;34.85;21.17;;;;;;;18.30;73.25;101393.88;5003192;28;20041;-49
2021/09/26 05:55:34;;;;;;;35.50;21.40;;;;;;;18.24;73.55;101393.03;5005698;28;20104;-49
2021/09/26 05:57:59;;;;;;;35.88;21.73;;;;;;;18.32;73.45;101397.34;5010463;28;20045;-50
2021/09/26 06:00:26;;;;;;;36.60;21.52;;;;;;;18.30;73.73;101402.66;5004675;28;20516;-51
2021/09/26 06:02:52;;;;;;;36.45;22.17;;;;;;;18.39;73.35;101399.06;5003252;28;20041;-51
2021/09/26 06:05:18;;;;;;;33.55;20.10;;;;;;;18.43;73.41;101400.75;5007823;28;20057;-52
2021/09/26 06:07:44;;;;;;;34.95;21.58;;;;;;;18.42;73.48;101402.53;5005690;28;20512;-53
2021/09/26 06:10:10;;;;;;;35.97;21.73;;;;;;;18.42;73.73;101388.47;5007398;28;20128;-52
2021/09/26 06:12:35;;;;;;;33.75;21.23;;;;;;;18.33;73.94;101393.84;5014900;28;20460;-50
2021/09/26 06:15:03;;;;;;;40.00;22.50;;;;;;;18.40;73.70;101393.78;5004768;28;20056;-53
2021/09/26 06:17:29;;;;;;;34.83;20.98;;;;;;;18.48;73.68;101393.69;5001790;28;20046;-53
2021/09/26 06:19:55;;;;;;;34.58;21.77;;;;;;;18.49;73.47;101392.78;5001163;28;20405;-50
2021/09/26 06:22:20;;;;;;;37.10;21.25;;;;;;;18.59;73.05;101384.78;5007643;28;20041;-50
2021/09/26 06:24:48;;;;;;;35.30;21.00;;;;;;;18.63;72.85;101385.63;5002444;28;20160;-52
2021/09/26 06:27:13;;;;;;;33.33;21.15;;;;;;;18.66;72.64;101385.59;5002596;28;20045;-52
2021/09/26 06:29:39;;;;;;;32.53;20.25;;;;;;;18.73;72.48;101399.56;5006552;28;20061;-49
2021/09/26 06:32:04;;;;;;;32.22;20.05;;;;;;;18.72;72.44;101395.22;5005078;28;20074;-49
2021/09/26 06:34:30;;;;;;;31.60;19.45;;;;;;;18.75;72.50;101395.16;5008333;28;20049;-50
2021/09/26 06:36:55;;;;;;;33.60;20.17;;;;;;;18.76;72.51;101400.44;5000935;28;20033;-51
2021/09/26 06:39:21;;;;;;;32.35;20.67;;;;;;;18.78;72.57;101408.34;5003633;28;20276;-49
2021/09/26 06:41:47;;;;;;;34.42;20.45;;;;;;;18.77;73.17;101399.53;5006205;28;20045;-53
2021/09/26 06:44:13;;;;;;;34.25;20.65;;;;;;;18.83;73.49;101406.53;5007288;28;20128;-51
2021/09/26 06:46:39;;;;;;;35.15;20.42;;;;;;;18.91;73.17;101397.59;5002453;28;20374;-52
2021/09/26 06:49:05;;;;;;;33.72;20.25;;;;;;;19.00;72.93;101412.47;5001311;28;20033;-54
2021/09/26 06:51:32;;;;;;;34.05;20.30;;;;;;;19.10;72.37;101413.22;5006304;28;20052;-53
2021/09/26 06:53:57;;;;;;;30.70;18.60;;;;;;;19.25;72.02;101418.31;5007484;28;20068;-50
2021/09/26 06:56:23;;;;;;;30.42;19.08;;;;;;;19.37;72.05;101426.06;5006069;28;20133;-51
2021/09/26 06:58:48;;;;;;;32.30;19.27;;;;;;;19.44;71.42;101431.25;5000803;28;20450;-50
2021/09/26 07:01:14;;;;;;;32.90;19.80;;;;;;;19.57;71.60;101423.19;5002403;28;20037;-51
2021/09/26 07:03:39;;;;;;;28.77;18.90;;;;;;;19.73;70.93;101427.31;5004659;28;20069;-49
2021/09/26 07:06:04;;;;;;;28.63;18.25;;;;;;;19.78;70.79;101426.34;5005140;28;20060;-51
2021/09/26 07:08:31;;;;;;;31.80;19.65;;;;;;;19.89;70.48;101423.53;5003647;28;20029;-52
2021/09/26 07:10:56;;;;;;;29.73;19.08;;;;;;;19.94;70.54;101429.66;5000791;28;20132;-53
2021/09/26 07:13:22;;;;;;;31.10;19.45;;;;;;;20.10;70.24;101428.47;5004882;28;20045;-49
2021/09/26 07:15:47;;;;;;;25.77;17.48;;;;;;;20.40;69.79;101421.81;5006896;28;20045;-54
2021/09/26 07:18:13;;;;;;;28.23;18.63;;;;;;;20.58;68.46;101426.75;5002283;28;20205;-51
2021/09/26 07:20:38;;;;;;;28.08;17.92;;;;;;;20.78;68.42;101431.69;5005773;28;20052;-52
2021/09/26 07:23:04;;;;;;;23.20;16.70;;;;;;;20.94;65.94;101424.28;4996388;28;20159;-51
2021/09/26 07:25:29;;;;;;;27.05;17.75;;;;;;;21.14;65.73;101431.81;5007420;28;20199;-52
2021/09/26 07:27:56;;;;;;;24.08;17.10;;;;;;;21.36;65.58;101430.47;5005377;28;20119;-51
2021/09/26 07:30:21;;;;;;;25.88;17.17;;;;;;;21.57;64.28;101437.09;5006337;28;20029;-49
2021/09/26 07:32:47;;;;;;;26.33;17.38;;;;;;;21.77;64.92;101441.00;5002656;28;20053;-48
2021/09/26 07:35:13;;;;;;;23.77;18.00;;;;;;;22.00;63.39;101434.31;5001316;28;20625;-52
2021/09/26 07:37:38;;;;;;;30.02;17.38;;;;;;;22.17;62.10;101429.44;5002892;28;20037;-50
2021/09/26 07:40:05;;;;;;;25.58;17.20;;;;;;;22.23;61.82;101432.81;5005275;28;20672;-49
2021/09/26 07:42:31;;;;;;;23.75;16.80;;;;;;;22.32;61.63;101421.09;5004274;28;20132;-53
2021/09/26 07:45:03;;;;;;;24.50;18.00;;;;;;;22.37;60.56;101419.19;5002664;28;20045;-52
2021/09/26 07:47:29;;;;;;;28.05;17.60;;;;;;;22.43;60.48;101416.38;5002670;28;20030;-49
2021/09/26 07:49:55;;;;;;;27.73;17.83;;;;;;;22.35;60.59;101412.16;5003115;28;20045;-51
2021/09/26 07:52:21;;;;;;;23.42;16.27;;;;;;;22.53;60.78;101424.94;5008021;28;20457;-50
2021/09/26 07:54:47;;;;;;;25.20;16.70;;;;;;;22.61;61.25;101437.13;5003210;28;20479;-50
2021/09/26 07:57:12;;;;;;;24.23;17.13;;;;;;;22.69;60.65;101442.19;5003069;28;20505;-49
2021/09/26 07:59:37;;;;;;;23.35;15.38;;;;;;;23.03;60.45;101448.38;5006453;28;20140;-49
2021/09/26 08:02:03;;;;;;;23.98;16.73;;;;;;;23.23;59.54;101463.75;5007738;28;20129;-54
2021/09/26 08:04:31;;;;;;;23.35;16.58;;;;;;;23.21;59.35;101462.91;5009931;28;20406;-52
2021/09/26 08:06:56;;;;;;;26.08;16.73;;;;;;;22.99;60.12;101469.78;5002406;28;20493;-53
2021/09/26 08:09:22;;;;;;;24.15;17.38;;;;;;;22.92;61.01;101479.72;5006430;28;20048;-50
2021/09/26 08:11:47;;;;;;;23.88;17.30;;;;;;;22.89;60.40;101481.56;5011586;28;20509;-51
2021/09/26 08:14:12;;;;;;;27.45;18.48;;;;;;;22.89;60.75;101478.91;5005070;28;20660;-50
2021/09/26 08:16:38;;;;;;;24.45;16.77;;;;;;;22.96;60.62;101480.47;5012054;28;20022;-51
2021/09/26 08:19:03;;;;;;;24.60;16.88;;;;;;;23.17;60.25;101476.34;5002263;28;20038;-54
2021/09/26 08:21:28;;;;;;;23.13;16.63;;;;;;;23.46;59.78;101473.69;5003339;28;20038;-52
2021/09/26 08:23:54;;;;;;;26.65;17.23;;;;;;;23.74;58.90;101471.94;5008444;28;20037;-51
2021/09/26 08:26:19;;;;;;;24.30;16.73;;;;;;;23.74;57.60;101474.59;5006805;28;20034;-51
2021/09/26 08:28:45;;;;;;;25.80;18.10;;;;;;;23.76;58.32;101469.25;5006099;28;20616;-54
2021/09/26 08:31:11;;;;;;;25.42;17.33;;;;;;;24.06;58.77;101470.91;5001179;28;20052;-49
2021/09/26 08:33:36;;;;;;;26.23;17.73;;;;;;;24.22;56.89;101474.84;5010312;28;20057;-52
2021/09/26 08:36:02;;;;;;;24.05;17.08;;;;;;;24.55;55.99;101467.50;5011077;28;20341;-48
2021/09/26 08:38:27;;;;;;;24.75;17.17;;;;;;;24.77;55.69;101469.38;5009451;28;20049;-49
2021/09/26 08:40:53;;;;;;;24.52;17.15;;;;;;;24.71;56.25;101481.13;4995336;28;20480;-51
2021/09/26 08:43:19;;;;;;;25.75;16.83;;;;;;;24.29;57.57;101475.50;5008365;28;20037;-48
2021/09/26 08:45:46;;;;;;;28.05;18.60;;;;;;;24.46;54.90;101473.13;5008575;28;20160;-51
2021/09/26 08:48:11;;;;;;;32.13;19.30;;;;;;;24.40;54.28;101472.47;4998937;28;20053;-50
2021/09/26 08:50:37;;;;;;;27.25;18.60;;;;;;;24.51;54.67;101476.53;5004898;28;20037;-52
2021/09/26 08:53:07;;;;;;;28.75;19.40;;;;;;;24.53;54.24;101481.78;4998626;28;20524;-49
2021/09/26 08:55:33;;;;;;;25.92;18.48;;;;;;;24.44;55.87;101482.13;5010039;28;20520;-52
2021/09/26 08:57:59;;;;;;;27.88;19.00;;;;;;;24.37;56.10;101477.91;5009106;28;20045;-51
2021/09/26 09:00:26;;;;;;;31.83;19.13;;;;;;;24.10;57.58;101479.66;5005968;28;21443;-49
2021/09/26 09:02:52;;;;;;;26.25;18.25;;;;;;;24.10;55.40;101475.22;5001252;28;20056;-50
2021/09/26 09:05:43;;;;;;;28.00;18.55;;;;;;;23.76;57.65;101479.91;5001311;28;20054;-51
2021/09/26 09:08:16;;;;;;;30.33;20.15;;;;;;;23.62;59.29;101482.97;5007548;28;20053;-50
2021/09/26 09:10:46;;;;;;;30.20;19.52;;;;;;;23.51;60.01;101485.09;5007337;28;20041;-50
2021/09/26 09:13:13;;;;;;;26.90;18.85;;;;;;;23.32;60.76;101487.41;5002930;28;20140;-48
2021/09/26 09:15:41;;;;;;;26.98;18.48;;;;;;;23.26;60.02;101489.38;5007216;28;20037;-51
2021/09/26 09:18:07;;;;;;;29.15;19.52;;;;;;;23.23;59.79;101484.16;5009911;28;20049;-51
2021/09/26 09:20:36;;;;;;;26.25;19.00;;;;;;;23.23;59.20;101490.34;5006851;28;20101;-51
2021/09/26 09:23:04;;;;;;;25.83;18.00;;;;;;;23.24;58.41;101500.06;4998193;28;20450;-50
2021/09/26 09:25:44;;;;;;;27.02;18.55;;;;;;;23.31;57.68;101495.41;5003907;28;21596;-49
2021/09/26 09:28:17;;;;;;;28.00;18.05;;;;;;;23.31;60.45;101501.63;5006914;28;20099;-48
2021/09/26 09:30:48;;;;;;;24.63;16.60;;;;;;;23.28;59.26;101504.38;5004664;28;20408;-49
2021/09/26 09:33:16;;;;;;;27.05;18.10;;;;;;;23.15;60.63;101497.66;4999262;28;20537;-50
2021/09/26 09:35:52;;;;;;;25.48;17.52;;;;;;;23.29;60.09;101497.28;5006540;28;20041;-50
2021/09/26 09:38:33;;;;;;;27.30;18.27;;;;;;;23.41;59.48;101500.44;5004903;28;20046;-51
2021/09/26 09:40:58;;;;;;;28.35;18.45;;;;;;;23.52;57.95;101502.81;5003139;28;20049;-48
2021/09/26 09:43:27;;;;;;;26.13;17.65;;;;;;;23.67;59.69;101509.44;5005649;28;20055;-50
2021/09/26 09:46:01;;;;;;;25.52;17.95;;;;;;;23.78;58.46;101507.34;5005481;28;20099;-52
2021/09/26 09:48:30;;;;;;;23.58;16.88;;;;;;;24.00;58.13;101503.06;5006863;28;20052;-53
2021/09/26 09:50:55;;;;;;;25.63;17.02;;;;;;;24.12;57.58;101505.34;4998646;28;20045;-52
2021/09/26 09:53:28;;;;;;;25.27;17.48;;;;;;;24.36;56.71;101509.03;5007881;28;20555;-51
2021/09/26 09:56:04;;;;;;;29.15;18.35;;;;;;;24.53;56.82;101503.97;5009154;28;20640;-51
2021/09/26 09:58:40;;;;;;;24.88;18.08;;;;;;;24.52;58.65;101506.69;5003081;28;20041;-51
2021/09/26 10:01:09;;;;;;;25.33;17.42;;;;;;;24.70;54.83;101505.22;4998602;28;20335;-49
2021/09/26 10:03:47;;;;;;;28.83;18.10;;;;;;;24.71;55.46;101512.25;5001172;28;20052;-49
2021/09/26 10:06:40;;;;;;;24.38;17.58;;;;;;;24.81;55.68;101511.91;5005566;28;20040;-52
2021/09/26 10:09:14;;;;;;;24.42;16.65;;;;;;;24.89;55.17;101509.84;4999399;28;20675;-49
2021/09/26 10:11:45;;;;;;;23.65;17.27;;;;;;;25.15;54.26;101505.38;5006110;28;20104;-53
2021/09/26 10:14:10;;;;;;;23.88;16.30;;;;;;;25.36;53.73;101508.13;5005805;28;20402;-49
2021/09/26 10:16:35;;;;;;;25.33;17.70;;;;;;;25.26;56.13;101511.16;5007387;28;20110;-54
2021/09/26 10:19:01;;;;;;;23.98;16.75;;;;;;;25.25;54.39;101504.13;4999910;28;20559;-48
2021/09/26 10:21:27;;;;;;;25.55;17.67;;;;;;;25.18;54.03;101499.94;5008137;28;20480;-48
2021/09/26 10:23:56;;;;;;;22.50;15.82;;;;;;;25.29;53.92;101501.28;5006859;28;20045;-48
2021/09/26 10:26:24;;;;;;;23.58;17.50;;;;;;;24.93;55.94;101500.84;5004539;28;21013;-50
2021/09/26 10:28:52;;;;;;;19.77;15.30;;;;;;;25.38;52.99;101502.69;5000127;28;20049;-51
2021/09/26 10:31:18;;;;;;;23.33;15.50;;;;;;;25.58;51.83;101502.84;5007515;28;20281;-52
2021/09/26 10:33:45;;;;;;;22.15;16.38;;;;;;;25.52;53.19;101497.72;5022528;28;20032;-51
2021/09/26 10:36:11;;;;;;;23.10;15.50;;;;;;;25.53;52.68;101506.59;5003946;28;20363;-49
2021/09/26 10:38:37;;;;;;;19.88;14.43;;;;;;;25.31;54.02;101503.88;4999853;28;20399;-50
2021/09/26 10:41:05;;;;;;;21.23;14.15;;;;;;;25.34;51.54;101509.09;5000305;28;20038;-51
2021/09/26 10:43:31;;;;;;;18.13;13.60;;;;;;;25.30;52.25;101520.81;5008157;28;20049;-49
2021/09/26 10:46:25;;;;;;;19.45;14.30;;;;;;;25.22;51.97;101517.56;5005078;28;20490;-50
2021/09/26 10:49:01;;;;;;;17.90;12.38;;;;;;;25.21;52.07;101506.00;4998944;28;20049;-50
2021/09/26 10:51:42;;;;;;;13.95;10.98;;;;;;;25.40;52.50;101514.22;5004362;28;20064;-51
2021/09/26 10:54:31;;;;;;;17.17;12.43;;;;;;;25.14;52.68;101514.28;5003304;28;20053;-54
2021/09/26 10:57:08;;;;;;;17.10;11.95;;;;;;;25.07;52.78;101510.97;5001657;28;20454;-48
2021/09/26 10:59:43;;;;;;;15.82;10.90;;;;;;;25.25;52.61;101504.13;5004430;28;20026;-53
2021/09/26 11:02:36;;;;;;;15.85;11.95;;;;;;;25.21;52.32;101500.69;5005905;28;20049;-52
2021/09/26 11:05:04;;;;;;;16.75;11.43;;;;;;;25.33;52.57;101508.22;4998036;28;20523;-52
2021/09/26 11:07:43;;;;;;;17.88;11.18;;;;;;;25.41;51.72;101508.81;5009518;28;20037;-49
2021/09/26 11:10:08;;;;;;;18.70;11.18;;;;;;;25.49;52.01;101510.31;5001476;28;20119;-50
2021/09/26 11:12:41;;;;;;;15.65;11.50;;;;;;;25.43;51.28;101500.75;5009289;28;20868;-50